Time;durP1;ratioP1;P1;durP2;ratioP2;P2;SDS_P1;SDS_P2;PMS_P1;PMS_P2;Temp;Humidity;BMP_temperature;BMP_pressure;BME280_temperature;BME280_humidity;BME280_pressure;Samples;Min_cycle;Max_cycle;Signal;HPM_P1;HPM_P2
2022/04/28 04:01:56;;;;;;;11.23;5.95;;;5.20;99.90;;;;;;5266800;23;20648;-71
2022/04/28 04:04:23;;;;;;;10.30;6.35;;;5.10;99.90;;;;;;4973333;28;20233;-72
2022/04/28 04:06:49;;;;;;;7.65;5.60;;;5.20;99.90;;;;;;4973739;28;20216;-71
2022/04/28 04:09:16;;;;;;;8.32;6.15;;;5.20;99.90;;;;;;4973644;28;20227;-71
2022/04/28 04:11:43;;;;;;;9.93;6.82;;;5.20;99.90;;;;;;4972846;28;20732;-70
2022/04/28 04:14:11;;;;;;;8.95;6.47;;;5.20;99.90;;;;;;4974377;28;20270;-71
2022/04/28 04:16:38;;;;;;;9.77;7.72;;;5.20;99.90;;;;;;4973158;28;20720;-71
2022/04/28 04:19:06;;;;;;;9.43;6.13;;;5.20;99.90;;;;;;4973320;28;20228;-71
2022/04/28 04:21:33;;;;;;;7.57;6.47;;;5.20;99.90;;;;;;4973082;28;20236;-70
2022/04/28 04:24:00;;;;;;;7.25;6.10;;;5.20;99.90;;;;;;4973549;28;20346;-71
2022/04/28 04:26:26;;;;;;;13.68;6.63;;;5.20;99.90;;;;;;4973519;28;20213;-71
2022/04/28 04:28:53;;;;;;;10.15;5.32;;;5.20;99.90;;;;;;4973338;28;20212;-71
2022/04/28 04:34:05;;;;;;;9.10;7.57;;;5.30;99.90;;;;;;4972692;28;20298;-71
2022/04/28 04:36:32;;;;;;;12.27;10.63;;;5.30;99.90;;;;;;4973205;28;20271;-71
2022/04/28 04:38:58;;;;;;;17.05;11.18;;;5.30;99.90;;;;;;4973061;28;20208;-71
2022/04/28 04:41:25;;;;;;;220.73;72.00;;;5.40;99.90;;;;;;4972842;28;20596;-71
2022/04/28 04:43:52;;;;;;;124.22;49.78;;;5.90;99.90;;;;;;4973089;28;20299;-71
2022/04/28 04:46:18;;;;;;;61.00;30.52;;;6.40;99.90;;;;;;4973371;28;20286;-72
2022/04/28 04:48:45;;;;;;;14.48;8.43;;;6.90;99.90;;;;;;4972275;28;20209;-71
2022/04/28 04:51:13;;;;;;;10.75;7.82;;;7.40;99.90;;;;;;4965400;28;20305;-71
2022/04/28 04:53:40;;;;;;;11.93;10.70;;;7.70;99.90;;;;;;4964853;28;20197;-73
2022/04/28 04:56:07;;;;;;;12.73;9.52;;;8.00;99.90;;;;;;4973274;28;20204;-71
2022/04/28 04:58:34;;;;;;;10.63;8.57;;;8.20;99.90;;;;;;4972932;28;20205;-71
2022/04/28 05:01:01;;;;;;;7.90;7.20;;;8.20;99.90;;;;;;4972572;28;20240;-71
2022/04/28 05:03:28;;;;;;;11.38;9.30;;;8.00;99.90;;;;;;4971605;28;20259;-70
2022/04/28 05:05:55;;;;;;;12.75;11.43;;;7.90;99.90;;;;;;4973341;28;20275;-72
2022/04/28 05:08:23;;;;;;;39.03;32.17;;;8.10;99.90;;;;;;4973139;28;20689;-71
2022/04/28 05:10:51;;;;;;;13.93;9.88;;;8.40;99.90;;;;;;4972592;28;20296;-70
2022/04/28 05:13:17;;;;;;;9.15;7.57;;;8.60;99.90;;;;;;4972787;28;20287;-71
2022/04/28 05:15:47;;;;;;;11.05;8.68;;;8.60;99.90;;;;;;4972853;28;20209;-70
2022/04/28 05:18:13;;;;;;;10.25;7.55;;;8.60;99.90;;;;;;4971773;28;20240;-70
2022/04/28 05:20:40;;;;;;;8.32;7.07;;;8.50;99.90;;;;;;4972088;28;20294;-71
2022/04/28 05:23:07;;;;;;;15.20;9.10;;;8.40;99.90;;;;;;4972667;28;20208;-71
2022/04/28 05:25:35;;;;;;;12.85;9.77;;;8.40;99.90;;;;;;4972710;28;20224;-71
2022/04/28 05:28:02;;;;;;;12.68;7.18;;;8.30;99.90;;;;;;4972328;28;20615;-70
2022/04/28 05:30:28;;;;;;;11.88;7.25;;;8.30;99.90;;;;;;4971967;28;20272;-70
2022/04/28 05:32:55;;;;;;;9.63;8.40;;;8.20;99.90;;;;;;4971218;28;20584;-71
2022/04/28 05:35:22;;;;;;;11.55;7.82;;;8.20;99.90;;;;;;4972674;28;20251;-71
2022/04/28 05:37:48;;;;;;;7.82;7.03;;;8.20;99.90;;;;;;4972126;28;20343;-70
2022/04/28 05:40:16;;;;;;;11.27;6.95;;;8.20;99.90;;;;;;4967234;28;20209;-71
2022/04/28 05:45:46;;;;;;;13.40;7.15;;;8.30;99.90;;;;;;4971828;28;20603;-70
2022/04/28 05:48:13;;;;;;;10.07;6.85;;;8.30;99.90;;;;;;4971247;28;20238;-71
2022/04/28 05:50:41;;;;;;;9.55;6.35;;;8.30;99.90;;;;;;4971699;28;20287;-71
2022/04/28 05:53:08;;;;;;;8.70;6.25;;;8.30;99.90;;;;;;4972259;28;20208;-71
2022/04/28 05:55:35;;;;;;;10.93;6.38;;;8.40;99.90;;;;;;4972230;28;20307;-70
2022/04/28 05:58:03;;;;;;;8.73;6.05;;;8.40;99.90;;;;;;4971993;28;20291;-71
2022/04/28 06:00:31;;;;;;;9.90;6.00;;;8.50;99.90;;;;;;4971534;28;20278;-70
2022/04/28 06:02:59;;;;;;;12.63;6.18;;;8.60;99.90;;;;;;4971185;28;20669;-71
2022/04/28 06:05:26;;;;;;;8.48;6.15;;;8.80;99.90;;;;;;4972664;28;20640;-71
2022/04/28 06:07:52;;;;;;;9.98;7.28;;;9.30;99.90;;;;;;4971957;28;20655;-70
2022/04/28 06:10:20;;;;;;;9.43;6.30;;;10.10;99.90;;;;;;4971418;28;20204;-71
2022/04/28 06:12:46;;;;;;;9.97;6.53;;;10.80;99.90;;;;;;4971575;28;20467;-71
2022/04/28 06:15:14;;;;;;;9.43;8.53;;;11.50;99.90;;;;;;4971980;28;20959;-71
2022/04/28 06:17:41;;;;;;;10.57;8.60;;;12.10;99.90;;;;;;4971401;28;20468;-70
2022/04/28 06:20:09;;;;;;;15.00;8.37;;;12.40;99.90;;;;;;4971196;28;20956;-71
2022/04/28 06:22:35;;;;;;;11.20;8.40;;;12.90;99.90;;;;;;4971708;28;20524;-70
2022/04/28 06:25:02;;;;;;;9.03;7.50;;;13.50;99.90;;;;;;4971604;28;20500;-70
2022/04/28 06:27:30;;;;;;;7.13;6.53;;;13.80;99.90;;;;;;4972023;28;20472;-71
2022/04/28 06:29:56;;;;;;;11.77;7.30;;;14.20;99.90;;;;;;4968345;28;20498;-71
2022/04/28 06:32:24;;;;;;;6.57;6.07;;;14.40;99.90;;;;;;4971520;28;20538;-72
2022/04/28 06:34:51;;;;;;;7.00;6.10;;;14.90;99.90;;;;;;4971342;28;20471;-71
2022/04/28 06:37:18;;;;;;;6.27;5.60;;;15.10;99.90;;;;;;4971650;28;20471;-71
2022/04/28 06:39:44;;;;;;;7.53;5.60;;;15.30;99.90;;;;;;4970904;28;20548;-71
2022/04/28 06:42:12;;;;;;;5.33;4.90;;;15.60;99.90;;;;;;4971733;28;20542;-72
2022/04/28 06:44:39;;;;;;;5.67;5.17;;;15.90;99.90;;;;;;4971777;28;20498;-72
2022/04/28 06:47:06;;;;;;;7.60;5.03;;;16.10;99.90;;;;;;4971199;28;20464;-72
2022/04/28 06:49:35;;;;;;;5.90;4.60;;;15.80;99.90;;;;;;4970466;28;20467;-71
2022/04/28 06:52:01;;;;;;;4.60;4.20;;;15.90;99.90;;;;;;4971065;28;20594;-71
2022/04/28 06:54:28;;;;;;;7.30;4.73;;;16.00;99.90;;;;;;4970880;28;20796;-71
2022/04/28 06:56:55;;;;;;;4.80;4.40;;;16.20;99.90;;;;;;4971317;28;20961;-71
2022/04/28 06:59:21;;;;;;;5.60;4.50;;;16.60;99.80;;;;;;4974944;28;20579;-71
2022/04/28 07:01:48;;;;;;;3.50;3.20;;;16.90;99.20;;;;;;4972647;28;20503;-71
2022/04/28 07:04:15;;;;;;;4.00;3.60;;;17.30;98.70;;;;;;4974074;28;20992;-71
2022/04/28 07:06:43;;;;;;;3.83;3.37;;;17.50;97.30;;;;;;4974712;28;20496;-71
2022/04/28 07:09:10;;;;;;;3.53;3.40;;;17.60;96.70;;;;;;4974618;28;21131;-71
2022/04/28 07:11:37;;;;;;;3.90;3.20;;;17.70;96.00;;;;;;4974259;28;20487;-70
2022/04/28 07:14:03;;;;;;;3.63;3.43;;;17.80;95.60;;;;;;4974873;28;20491;-71
2022/04/28 07:16:30;;;;;;;5.20;3.83;;;17.40;95.40;;;;;;4974509;28;20518;-70
2022/04/28 07:18:57;;;;;;;4.30;3.97;;;16.80;95.50;;;;;;4974517;28;20840;-71
2022/04/28 07:21:23;;;;;;;4.00;3.43;;;16.60;96.60;;;;;;4973871;28;20484;-70
2022/04/28 07:23:51;;;;;;;3.67;3.37;;;16.60;96.80;;;;;;4974368;28;20464;-71
2022/04/28 07:26:18;;;;;;;3.60;3.40;;;16.60;96.50;;;;;;4974384;28;20945;-70
2022/04/28 07:28:45;;;;;;;7.97;3.30;;;16.70;96.70;;;;;;4974306;28;20537;-71
2022/04/28 07:31:11;;;;;;;4.23;3.70;;;16.50;96.00;;;;;;4973916;28;20550;-69
2022/04/28 07:33:38;;;;;;;4.63;3.67;;;15.60;97.00;;;;;;4973708;28;20595;-70
2022/04/28 07:36:05;;;;;;;3.93;3.60;;;15.50;98.60;;;;;;4974143;28;20526;-70
2022/04/28 07:38:33;;;;;;;3.73;3.43;;;15.30;97.50;;;;;;4974825;28;20472;-70
2022/04/28 07:41:02;;;;;;;2.57;2.37;;;15.20;98.50;;;;;;4969891;28;20627;-70
2022/04/28 07:43:29;;;;;;;2.97;2.83;;;15.40;97.30;;;;;;4973936;28;20464;-70
2022/04/28 07:45:56;;;;;;;5.13;4.70;;;15.40;97.40;;;;;;4974198;28;20853;-70
2022/04/28 07:48:22;;;;;;;4.60;4.20;;;15.10;98.10;;;;;;4973277;28;20485;-71
2022/04/28 07:50:50;;;;;;;6.00;4.30;;;14.50;98.70;;;;;;4973857;28;20484;-71
2022/04/28 07:53:17;;;;;;;4.53;4.23;;;14.30;99.90;;;;;;4974286;28;20476;-70
2022/04/28 07:55:44;;;;;;;5.70;5.20;;;14.00;99.90;;;;;;4974260;28;20460;-67
2022/04/28 07:58:12;;;;;;;5.07;4.47;;;13.90;99.90;;;;;;4973969;28;20482;-70
2022/04/28 08:00:38;;;;;;;6.53;4.30;;;13.50;99.90;;;;;;4973183;28;20578;-69
2022/04/28 08:03:05;;;;;;;4.50;4.10;;;13.20;99.90;;;;;;4972947;28;20538;-68
2022/04/28 08:05:32;;;;;;;3.80;3.50;;;13.10;99.90;;;;;;4974015;28;20491;-68
2022/04/28 08:07:58;;;;;;;4.23;3.93;;;13.20;99.90;;;;;;4974017;28;20463;-68
2022/04/28 08:10:25;;;;;;;5.43;4.07;;;13.30;99.90;;;;;;4972747;28;20791;-69
2022/04/28 08:12:52;;;;;;;5.60;4.23;;;13.20;99.90;;;;;;4973561;28;20464;-69
2022/04/28 08:15:20;;;;;;;4.13;3.73;;;13.30;99.90;;;;;;4973477;28;21026;-68
2022/04/28 08:17:46;;;;;;;10.23;4.03;;;13.20;99.90;;;;;;4972666;28;20844;-68
2022/04/28 08:20:13;;;;;;;6.30;4.10;;;13.30;99.90;;;;;;4973058;28;20463;-71
2022/04/28 08:22:40;;;;;;;3.97;3.67;;;13.30;99.90;;;;;;4973663;28;20892;-71
2022/04/28 08:25:08;;;;;;;6.03;4.70;;;13.20;99.90;;;;;;4973420;28;21015;-71
2022/04/28 08:27:34;;;;;;;15.03;5.80;;;13.10;99.90;;;;;;4973585;28;20464;-71
2022/04/28 08:30:01;;;;;;;4.13;3.73;;;13.10;99.90;;;;;;4978849;28;20471;-71
2022/04/28 08:32:29;;;;;;;5.63;4.50;;;13.20;99.90;;;;;;4990827;28;20546;-70
2022/04/28 08:34:55;;;;;;;4.97;4.47;;;13.00;99.90;;;;;;4990568;28;20456;-70
2022/04/28 08:37:22;;;;;;;5.30;4.80;;;13.00;99.90;;;;;;4991221;28;20464;-71
2022/04/28 08:39:49;;;;;;;5.83;5.30;;;13.10;99.90;;;;;;4976584;28;20463;-71
2022/04/28 08:42:15;;;;;;;10.90;9.33;;;13.20;99.90;;;;;;4974269;28;20488;-71
2022/04/28 08:44:45;;;;;;;6.23;4.50;;;13.40;99.90;;;;;;4973605;28;20483;-71
2022/04/28 08:47:12;;;;;;;4.70;4.13;;;13.40;99.90;;;;;;4973030;28;20492;-70
2022/04/28 08:49:42;;;;;;;4.80;4.57;;;13.50;99.90;;;;;;4972226;28;20476;-71
2022/04/28 08:52:10;;;;;;;4.40;4.10;;;13.40;99.90;;;;;;4972969;28;20488;-70
2022/04/28 08:54:40;;;;;;;8.83;5.40;;;13.20;99.90;;;;;;4972881;28;20470;-71
2022/04/28 08:57:07;;;;;;;4.40;4.00;;;13.20;99.90;;;;;;4973003;28;20464;-71
2022/04/28 08:59:33;;;;;;;7.27;5.23;;;13.20;99.90;;;;;;4972342;28;21007;-70
2022/04/28 09:02:00;;;;;;;5.70;4.80;;;13.20;99.90;;;;;;4971682;28;20503;-70
2022/04/28 09:04:27;;;;;;;5.33;3.67;;;13.30;99.90;;;;;;4972288;28;20487;-71
2022/04/28 09:06:56;;;;;;;5.93;4.43;;;13.20;99.90;;;;;;4973147;28;20534;-71
2022/04/28 09:09:25;;;;;;;4.63;4.23;;;13.30;99.90;;;;;;4972940;28;20530;-71
2022/04/28 09:11:53;;;;;;;4.50;4.17;;;13.40;99.90;;;;;;4972385;28;20892;-70
2022/04/28 09:14:23;;;;;;;4.60;4.40;;;13.30;99.90;;;;;;4973163;28;20474;-71
2022/04/28 09:16:51;;;;;;;3.77;3.43;;;13.20;99.90;;;;;;4972664;28;20475;-70
2022/04/28 09:19:22;;;;;;;7.63;4.37;;;13.20;99.90;;;;;;4972366;28;20467;-71
2022/04/28 09:21:52;;;;;;;4.97;4.53;;;13.20;99.90;;;;;;4972436;28;20927;-72
2022/04/28 09:24:20;;;;;;;5.10;4.60;;;13.10;99.90;;;;;;4972647;28;20820;-72
2022/04/28 09:26:48;;;;;;;5.60;4.30;;;13.00;99.90;;;;;;4972683;28;20460;-71
2022/04/28 09:29:16;;;;;;;4.57;3.97;;;12.90;99.90;;;;;;4972495;28;20471;-71
2022/04/28 09:31:44;;;;;;;4.60;4.20;;;12.90;99.90;;;;;;4971638;28;20606;-71
2022/04/28 09:34:12;;;;;;;7.63;5.03;;;12.90;99.90;;;;;;4972074;28;20781;-71
2022/04/28 09:36:40;;;;;;;8.63;4.90;;;12.90;99.90;;;;;;4972917;28;20208;-71
2022/04/28 09:39:08;;;;;;;5.43;4.13;;;12.90;99.90;;;;;;4972320;28;21026;-71
2022/04/28 09:44:20;;;;;;;5.30;4.77;;;12.90;99.90;;;;;;4972168;28;20558;-71
2022/04/28 09:46:48;;;;;;;5.07;4.10;;;13.00;99.90;;;;;;4972003;28;20625;-71
2022/04/28 09:49:17;;;;;;;4.17;3.87;;;13.00;99.90;;;;;;4971710;28;20501;-71
2022/04/28 09:51:45;;;;;;;3.73;3.50;;;13.00;99.90;;;;;;4971501;28;20494;-70
2022/04/28 09:54:12;;;;;;;6.67;4.30;;;13.00;99.90;;;;;;4972227;28;20467;-71
2022/04/28 09:56:43;;;;;;;4.73;4.43;;;13.10;99.90;;;;;;4972378;28;20526;-71
2022/04/28 09:59:11;;;;;;;4.43;4.03;;;13.10;99.90;;;;;;4972020;28;20468;-71
2022/04/28 10:01:39;;;;;;;4.80;4.40;;;13.20;99.90;;;;;;4970905;28;20506;-71
2022/04/28 10:04:06;;;;;;;4.20;3.80;;;13.20;99.90;;;;;;4971385;28;20503;-71
2022/04/28 10:06:35;;;;;;;7.03;4.33;;;13.10;99.90;;;;;;4971806;28;20578;-71
2022/04/28 10:09:05;;;;;;;4.33;4.03;;;13.10;99.90;;;;;;4971774;28;20463;-71
2022/04/28 10:11:32;;;;;;;4.57;4.17;;;13.10;99.90;;;;;;4971312;28;20538;-71
2022/04/28 10:14:00;;;;;;;4.60;4.30;;;13.10;99.90;;;;;;4996646;23;20951;-71
2022/04/28 10:16:27;;;;;;;4.57;4.00;;;13.20;99.90;;;;;;4991381;28;20556;-71
2022/04/28 10:19:01;;;;;;;4.10;3.80;;;13.20;99.90;;;;;;4990367;28;20473;-71
2022/04/28 10:21:34;;;;;;;6.67;4.33;;;13.20;99.90;;;;;;4991041;28;20493;-72
2022/04/28 10:32:55;;;;;;;4.97;4.57;;;13.30;99.90;;;;;;4991568;28;20454;-71
2022/04/28 10:35:35;;;;;;;4.00;3.60;;;13.40;99.90;;;;;;4995350;28;20489;-71
2022/04/28 10:38:07;;;;;;;4.93;4.20;;;13.50;99.90;;;;;;4995306;28;20470;-71
2022/04/28 10:40:38;;;;;;;4.90;4.47;;;13.50;99.90;;;;;;4994716;28;20470;-72
2022/04/28 10:43:04;;;;;;;4.53;4.20;;;13.50;99.90;;;;;;4995180;28;20513;-71
2022/04/28 10:45:41;;;;;;;5.53;4.73;;;13.60;99.90;;;;;;4994888;28;20493;-71
2022/04/28 10:48:31;;;;;;;5.10;4.63;;;13.60;99.90;;;;;;4994352;28;20505;-71
2022/04/28 10:51:10;;;;;;;9.83;4.70;;;13.70;99.90;;;;;;4994541;28;20466;-71
2022/04/28 10:53:56;;;;;;;5.13;4.73;;;13.80;99.90;;;;;;4994771;28;20502;-71
2022/04/28 10:56:24;;;;;;;7.53;4.60;;;13.80;99.90;;;;;;4994962;28;20463;-71
2022/04/28 10:58:50;;;;;;;8.17;7.20;;;13.80;99.90;;;;;;4994844;28;20470;-71
2022/04/28 11:01:27;;;;;;;6.67;5.33;;;13.90;99.90;;;;;;4993305;28;20936;-72
2022/04/28 11:03:56;;;;;;;5.17;4.67;;;13.90;99.90;;;;;;4994056;28;20486;-71
2022/04/28 11:06:27;;;;;;;6.13;4.60;;;14.00;99.90;;;;;;4994662;28;20486;-71
2022/04/28 11:08:56;;;;;;;4.30;4.00;;;14.00;99.90;;;;;;4994641;28;20566;-71
2022/04/28 11:11:29;;;;;;;6.33;5.70;;;14.10;99.90;;;;;;4994055;28;20458;-71
2022/04/28 11:13:57;;;;;;;6.73;4.80;;;14.10;99.90;;;;;;4994242;28;21021;-72
2022/04/28 11:16:27;;;;;;;8.13;5.70;;;14.10;99.90;;;;;;4994457;28;20459;-72
2022/04/28 11:18:54;;;;;;;7.33;5.80;;;14.20;99.90;;;;;;4993732;28;20463;-72
2022/04/28 11:21:21;;;;;;;8.47;5.77;;;14.20;99.90;;;;;;4993750;28;20930;-72
2022/04/28 11:23:49;;;;;;;7.50;5.87;;;14.30;99.90;;;;;;4994451;28;20475;-71
2022/04/28 11:26:18;;;;;;;4.93;4.23;;;14.20;99.90;;;;;;4994400;28;20486;-71
2022/04/28 11:28:44;;;;;;;6.47;5.87;;;14.30;99.90;;;;;;4993945;28;20459;-72
2022/04/28 11:31:13;;;;;;;9.80;5.77;;;14.40;99.90;;;;;;4993671;28;20458;-72
2022/04/28 11:33:43;;;;;;;7.23;6.53;;;14.50;99.90;;;;;;4993005;28;20474;-72
2022/04/28 11:36:17;;;;;;;6.60;5.47;;;14.60;99.90;;;;;;4994352;28;20489;-71
2022/04/28 11:38:53;;;;;;;8.13;6.07;;;14.60;99.90;;;;;;4993861;28;20532;-71
2022/04/28 11:41:31;;;;;;;6.30;5.70;;;14.70;99.90;;;;;;4988988;28;20470;-71
2022/04/28 11:44:00;;;;;;;6.93;5.83;;;14.70;99.90;;;;;;4992744;28;20913;-72
2022/04/28 11:46:27;;;;;;;9.93;6.60;;;14.80;99.90;;;;;;4994131;28;20487;-72
2022/04/28 11:48:55;;;;;;;6.13;5.73;;;14.80;99.90;;;;;;4992839;28;20477;-71
2022/04/28 11:51:25;;;;;;;7.00;5.67;;;14.80;99.90;;;;;;4993366;28;20471;-72
2022/04/28 11:53:53;;;;;;;10.93;6.70;;;14.80;99.90;;;;;;4993240;28;21016;-72
2022/04/28 11:56:23;;;;;;;8.90;7.57;;;14.90;99.90;;;;;;4993474;28;20463;-72
2022/04/28 11:58:51;;;;;;;6.13;5.63;;;15.00;99.90;;;;;;4993572;28;20829;-71
2022/04/28 12:01:20;;;;;;;12.20;7.07;;;14.90;99.90;;;;;;4993492;28;20467;-72
2022/04/28 12:03:51;;;;;;;9.63;5.83;;;15.00;99.90;;;;;;4992584;28;20495;-72
2022/04/28 12:06:20;;;;;;;9.10;6.80;;;15.00;99.90;;;;;;4993540;28;20482;-71
2022/04/28 12:08:51;;;;;;;7.20;6.40;;;15.00;99.90;;;;;;4993190;28;20873;-72
2022/04/28 12:19:50;;;;;;;7.80;6.30;;;15.20;97.90;;;;;;4931827;29;20446;-72
2022/04/28 12:22:30;;;;;;;8.03;6.30;;;15.20;98.30;;;;;;4932841;29;20625;-71
2022/04/28 12:25:03;;;;;;;7.60;6.90;;;15.30;98.70;;;;;;4965706;28;20582;-71
2022/04/28 12:27:43;;;;;;;7.10;6.60;;;15.40;98.60;;;;;;4993004;28;20578;-71
2022/04/28 12:30:12;;;;;;;10.57;7.03;;;15.30;98.30;;;;;;4989891;28;20467;-71
2022/04/28 12:32:44;;;;;;;7.87;7.00;;;15.30;97.70;;;;;;4992582;28;20502;-72
2022/04/28 12:35:11;;;;;;;9.53;7.27;;;15.30;97.60;;;;;;4992899;28;20491;-68
2022/04/28 12:37:39;;;;;;;7.37;6.63;;;15.40;98.00;;;;;;4992899;28;20471;-70
2022/04/28 12:40:07;;;;;;;7.90;7.07;;;15.30;98.10;;;;;;4991978;28;20468;-72
2022/04/28 12:42:44;;;;;;;7.67;6.57;;;15.40;99.00;;;;;;4992749;28;20479;-71
2022/04/28 12:45:11;;;;;;;9.47;6.80;;;15.40;98.80;;;;;;4992899;28;20490;-70
2022/04/28 12:47:40;;;;;;;8.90;6.70;;;15.50;98.80;;;;;;4992254;28;20459;-71
2022/04/28 12:50:20;;;;;;;9.27;7.10;;;15.60;98.90;;;;;;4991736;28;20466;-72
2022/04/28 12:52:49;;;;;;;6.90;6.20;;;15.70;98.10;;;;;;4992206;28;20546;-71
2022/04/28 12:55:18;;;;;;;12.60;7.60;;;15.60;97.90;;;;;;4992181;28;20494;-71
2022/04/28 12:57:44;;;;;;;9.17;7.77;;;15.60;97.60;;;;;;4992090;28;20923;-70
2022/04/28 13:00:12;;;;;;;8.70;6.27;;;15.70;98.10;;;;;;4991964;28;20463;-71
2022/04/28 13:02:46;;;;;;;6.73;6.13;;;15.70;98.90;;;;;;4991035;28;20471;-72
2022/04/28 13:05:15;;;;;;;9.37;7.23;;;15.90;98.00;;;;;;4992438;28;20497;-71
2022/04/28 13:07:42;;;;;;;7.60;6.90;;;15.90;97.90;;;;;;4991749;28;20844;-71
2022/04/28 13:10:12;;;;;;;10.60;7.00;;;15.90;98.30;;;;;;4991664;28;20467;-71
2022/04/28 13:12:39;;;;;;;13.30;6.70;;;15.90;97.00;;;;;;4992005;28;20550;-69
2022/04/28 13:15:07;;;;;;;10.33;6.70;;;15.90;96.80;;;;;;4991672;28;20610;-69
2022/04/28 13:17:33;;;;;;;10.37;6.57;;;15.90;97.30;;;;;;4991550;28;20459;-70
2022/04/28 13:20:00;;;;;;;7.37;6.53;;;16.00;97.30;;;;;;4991255;28;20471;-69
2022/04/28 13:22:27;;;;;;;7.67;6.97;;;16.00;97.50;;;;;;4991957;28;20463;-69
2022/04/28 13:24:54;;;;;;;7.47;6.83;;;16.00;98.10;;;;;;4992730;28;20557;-70
2022/04/28 13:27:22;;;;;;;9.13;7.83;;;16.10;97.80;;;;;;4992496;28;21014;-70
2022/04/28 13:29:49;;;;;;;8.37;6.90;;;16.10;98.10;;;;;;4991527;28;20467;-71
2022/04/28 13:32:15;;;;;;;7.00;6.50;;;16.20;98.30;;;;;;4991632;28;20601;-70
2022/04/28 13:34:43;;;;;;;13.90;7.87;;;16.20;98.30;;;;;;4991622;28;20486;-71
2022/04/28 13:37:10;;;;;;;7.43;6.50;;;16.20;97.80;;;;;;4991703;28;20463;-71
2022/04/28 13:39:36;;;;;;;7.50;6.60;;;16.20;97.80;;;;;;4991259;28;20831;-70
2022/04/28 13:42:03;;;;;;;8.03;7.17;;;16.30;97.80;;;;;;4987646;28;20859;-70
2022/04/28 13:44:32;;;;;;;8.80;7.60;;;16.40;98.00;;;;;;4992026;28;20483;-70
2022/04/28 13:47:00;;;;;;;6.70;6.23;;;16.40;98.10;;;;;;4991517;28;20856;-70
2022/04/28 13:49:26;;;;;;;8.50;7.60;;;16.40;98.30;;;;;;4991378;28;20966;-70
2022/04/28 13:51:53;;;;;;;8.37;7.57;;;16.40;98.50;;;;;;4991376;28;20517;-69
2022/04/28 13:54:19;;;;;;;7.70;7.00;;;16.40;98.10;;;;;;4991895;28;20545;-69
2022/04/28 13:56:46;;;;;;;10.70;7.43;;;16.40;97.80;;;;;;4992089;28;20530;-70
2022/04/28 13:59:13;;;;;;;7.57;6.40;;;16.40;97.80;;;;;;4991880;28;20509;-70
2022/04/28 14:01:41;;;;;;;7.53;6.80;;;16.50;97.80;;;;;;4991496;28;20466;-70
2022/04/28 14:04:07;;;;;;;9.97;8.93;;;16.60;97.90;;;;;;4992013;28;20491;-71
2022/04/28 14:06:34;;;;;;;11.03;8.07;;;16.70;98.10;;;;;;4991714;28;20482;-70
2022/04/28 14:09:01;;;;;;;8.90;8.10;;;16.80;98.10;;;;;;4991950;28;20806;-71
2022/04/28 14:11:28;;;;;;;8.47;7.67;;;16.80;98.30;;;;;;4991953;28;20536;-70
2022/04/28 14:13:55;;;;;;;8.00;6.80;;;16.80;97.90;;;;;;4991947;28;20498;-72
2022/04/28 14:16:22;;;;;;;7.33;6.63;;;16.90;98.00;;;;;;4992553;28;20485;-70
2022/04/28 14:18:50;;;;;;;12.80;7.33;;;17.00;97.30;;;;;;4991296;28;20463;-70
2022/04/28 14:21:16;;;;;;;7.30;6.80;;;16.90;96.50;;;;;;4991440;28;20467;-69
2022/04/28 14:23:43;;;;;;;7.17;6.47;;;16.80;96.50;;;;;;4991873;28;20470;-70
2022/04/28 14:26:11;;;;;;;8.47;7.60;;;16.80;96.80;;;;;;4992142;28;20529;-69
2022/04/28 14:28:37;;;;;;;8.10;7.30;;;16.70;96.40;;;;;;4991162;28;20463;-70
2022/04/28 14:31:04;;;;;;;7.80;7.30;;;16.70;96.80;;;;;;4990529;28;20471;-69
2022/04/28 14:33:30;;;;;;;8.80;8.20;;;16.80;96.80;;;;;;4990095;28;20491;-69
2022/04/28 14:35:58;;;;;;;8.93;8.23;;;16.90;96.60;;;;;;4991378;28;20509;-70
2022/04/28 14:38:25;;;;;;;11.67;8.60;;;16.90;97.30;;;;;;4990995;28;20466;-71
2022/04/28 14:40:52;;;;;;;9.90;8.90;;;16.90;97.10;;;;;;4990529;28;20546;-69
2022/04/28 14:43:19;;;;;;;8.80;8.10;;;16.90;96.50;;;;;;4991062;28;20463;-69
2022/04/28 14:45:45;;;;;;;8.83;8.10;;;16.80;96.60;;;;;;4990847;28;20893;-70
2022/04/28 14:48:15;;;;;;;7.83;7.30;;;16.80;97.30;;;;;;4989975;28;20546;-70
2022/04/28 14:53:28;;;;;;;9.37;8.23;;;16.80;97.60;;;;;;4990983;28;20810;-69
2022/04/28 14:55:54;;;;;;;8.63;7.93;;;16.80;97.30;;;;;;4991444;28;20854;-69
2022/04/28 14:58:21;;;;;;;10.17;8.27;;;16.80;97.00;;;;;;4991093;28;20462;-70
2022/04/28 15:00:48;;;;;;;8.13;7.40;;;16.90;97.00;;;;;;4990948;28;20477;-70
2022/04/28 15:03:15;;;;;;;8.07;7.30;;;16.90;97.40;;;;;;4989554;28;20828;-70
2022/04/28 15:05:42;;;;;;;7.23;6.60;;;16.90;96.80;;;;;;4991348;28;20487;-69
2022/04/28 15:08:09;;;;;;;9.30;7.30;;;16.90;96.90;;;;;;4991240;28;20545;-70
2022/04/28 15:10:39;;;;;;;8.07;7.40;;;16.90;97.40;;;;;;4991099;28;20470;-70
2022/04/28 15:13:06;;;;;;;7.60;6.77;;;16.90;97.20;;;;;;4990834;28;20525;-70
2022/04/28 15:15:35;;;;;;;8.17;7.37;;;16.90;96.80;;;;;;4990652;28;20494;-69
2022/04/28 15:18:02;;;;;;;8.63;7.83;;;16.90;96.90;;;;;;4990149;28;20466;-69
2022/04/28 15:20:29;;;;;;;8.70;7.90;;;16.90;96.70;;;;;;4993265;28;20974;-69
2022/04/28 15:22:56;;;;;;;9.20;8.30;;;16.90;97.10;;;;;;4994061;28;20474;-69
2022/04/28 15:25:23;;;;;;;8.57;7.77;;;17.00;97.00;;;;;;4993851;28;20995;-68
2022/04/28 15:27:51;;;;;;;8.40;7.70;;;17.00;96.50;;;;;;4994041;28;20545;-68
2022/04/28 15:30:17;;;;;;;8.80;7.90;;;17.10;96.80;;;;;;4993507;28;20463;-68
2022/04/28 15:32:44;;;;;;;9.63;7.83;;;17.10;96.50;;;;;;4993385;28;20462;-67
2022/04/28 15:35:12;;;;;;;7.70;7.00;;;17.20;96.70;;;;;;4993723;28;20537;-70
2022/04/28 15:37:39;;;;;;;8.80;8.00;;;17.30;97.40;;;;;;4993784;28;20469;-70
2022/04/28 15:40:09;;;;;;;9.33;8.37;;;17.40;96.90;;;;;;4993576;28;20521;-69
2022/04/28 15:42:35;;;;;;;8.47;7.97;;;17.50;97.00;;;;;;4994565;28;20467;-68
2022/04/28 15:45:04;;;;;;;8.37;7.67;;;17.60;96.70;;;;;;4993788;28;20486;-68
2022/04/28 15:47:30;;;;;;;8.30;7.10;;;17.60;96.90;;;;;;4993323;28;20498;-70
2022/04/28 15:49:57;;;;;;;8.20;7.40;;;17.60;97.40;;;;;;4993447;28;20525;-68
2022/04/28 15:52:25;;;;;;;7.50;6.80;;;17.50;97.50;;;;;;4989013;28;20470;-69
2022/04/28 15:54:52;;;;;;;7.60;7.10;;;17.50;97.10;;;;;;4994990;28;20841;-69
2022/04/28 15:57:20;;;;;;;7.00;6.40;;;17.40;97.20;;;;;;4993196;28;20877;-68
2022/04/28 15:59:47;;;;;;;6.73;6.23;;;17.40;97.60;;;;;;4992400;28;20467;-70
2022/04/28 16:02:17;;;;;;;7.03;6.27;;;17.40;98.50;;;;;;4992541;28;20521;-69
2022/04/28 16:04:44;;;;;;;6.87;6.17;;;17.30;98.50;;;;;;4994662;28;20594;-69
2022/04/28 16:07:10;;;;;;;6.60;6.10;;;17.30;98.60;;;;;;4997953;28;20494;-70
2022/04/28 16:09:37;;;;;;;7.07;6.37;;;17.40;99.10;;;;;;4996743;28;20819;-70
2022/04/28 16:12:05;;;;;;;7.87;5.83;;;17.40;99.50;;;;;;4999248;28;20466;-69
2022/04/28 16:14:32;;;;;;;7.47;5.20;;;17.40;99.40;;;;;;4996731;28;20556;-72
2022/04/28 16:16:58;;;;;;;7.30;4.60;;;17.30;99.70;;;;;;4995099;28;20613;-72
2022/04/28 16:19:27;;;;;;;4.90;4.60;;;17.30;99.90;;;;;;4993877;28;20774;-72
2022/04/28 16:21:54;;;;;;;4.47;4.17;;;17.20;99.90;;;;;;4994033;28;20517;-71
2022/04/28 16:24:21;;;;;;;11.37;3.03;;;17.20;99.90;;;;;;4994303;28;20483;-72
2022/04/28 16:26:48;;;;;;;3.33;3.03;;;17.10;99.90;;;;;;4994229;28;20495;-71
2022/04/28 16:29:14;;;;;;;4.30;3.87;;;17.00;99.90;;;;;;4993672;28;20498;-71
2022/04/28 16:31:41;;;;;;;4.50;3.57;;;16.90;99.90;;;;;;4991965;28;20998;-72
2022/04/28 16:34:07;;;;;;;3.90;3.53;;;16.90;99.90;;;;;;4993020;28;20536;-73
2022/04/28 16:36:35;;;;;;;4.40;3.03;;;16.90;99.90;;;;;;4993364;28;20521;-71
2022/04/28 16:39:02;;;;;;;3.13;2.83;;;16.90;99.90;;;;;;4993000;28;20517;-71
2022/04/28 16:41:29;;;;;;;3.40;3.20;;;16.80;99.90;;;;;;4992634;28;20525;-71
2022/04/28 16:43:56;;;;;;;2.80;2.67;;;16.80;99.90;;;;;;4992720;28;20848;-72
2022/04/28 16:46:22;;;;;;;5.93;2.87;;;16.70;99.90;;;;;;4993278;28;20494;-72
2022/04/28 16:48:49;;;;;;;2.70;2.57;;;16.70;99.90;;;;;;4991979;28;20845;-72
2022/04/28 16:51:16;;;;;;;4.10;2.63;;;16.60;99.90;;;;;;4992316;28;20963;-72
2022/04/28 16:53:44;;;;;;;3.83;2.13;;;16.60;99.90;;;;;;4992257;28;20471;-72
2022/04/28 16:56:11;;;;;;;2.90;2.53;;;16.50;99.90;;;;;;4992492;28;20467;-72
2022/04/28 16:58:38;;;;;;;2.07;1.97;;;16.40;99.90;;;;;;4992129;28;20463;-72
2022/04/28 17:01:04;;;;;;;2.63;2.17;;;16.30;99.90;;;;;;4992172;28;20462;-72
2022/04/28 17:06:15;;;;;;;2.20;2.00;;;16.10;99.90;;;;;;4992331;28;20514;-72
2022/04/28 17:08:42;;;;;;;4.17;2.17;;;15.90;99.90;;;;;;4992207;28;20495;-73
2022/04/28 17:11:10;;;;;;;2.53;2.40;;;15.80;99.90;;;;;;4993089;28;20475;-72
2022/04/28 17:13:36;;;;;;;3.20;2.40;;;15.80;99.90;;;;;;4992670;28;20459;-72
2022/04/28 17:16:03;;;;;;;2.53;2.03;;;15.70;99.90;;;;;;4992874;28;20548;-72
2022/04/28 17:18:29;;;;;;;3.17;2.93;;;15.60;99.90;;;;;;4991752;28;20947;-72
2022/04/28 17:20:56;;;;;;;2.67;2.50;;;15.60;99.90;;;;;;4992297;28;20517;-72